sensor_id;sensor_type;location;lat;lon;timestamp;pressure;altitude;pressure_sealevel;temperature;humidity
78431;BME280;67727;50.236;22.452;2024-02-28T00:00:29;99789.79;;;7.98;80.33
78431;BME280;67727;50.236;22.452;2024-02-28T00:03:16;99794.49;;;7.95;80.66
78431;BME280;67727;50.236;22.452;2024-02-28T00:05:43;99796.88;;;7.91;80.47
78431;BME280;67727;50.236;22.452;2024-02-28T00:08:12;99794.92;;;7.90;80.52
78431;BME280;67727;50.236;22.452;2024-02-28T00:10:39;99796.80;;;7.87;80.35
78431;BME280;67727;50.236;22.452;2024-02-28T00:13:06;99794.98;;;7.84;80.54
78431;BME280;67727;50.236;22.452;2024-02-28T00:15:33;99795.31;;;7.81;80.12
78431;BME280;67727;50.236;22.452;2024-02-28T00:18:00;99794.34;;;7.79;80.56
78431;BME280;67727;50.236;22.452;2024-02-28T00:20:27;99791.85;;;7.75;80.54
78431;BME280;67727;50.236;22.452;2024-02-28T00:22:56;99796.69;;;7.73;80.68
78431;BME280;67727;50.236;22.452;2024-02-28T00:25:22;99798.17;;;7.71;80.59
78431;BME280;67727;50.236;22.452;2024-02-28T00:27:49;99796.09;;;7.69;80.85
78431;BME280;67727;50.236;22.452;2024-02-28T00:30:17;99797.92;;;7.66;80.42
78431;BME280;67727;50.236;22.452;2024-02-28T00:32:44;99795.83;;;7.64;80.78
78431;BME280;67727;50.236;22.452;2024-02-28T00:35:11;99795.00;;;7.62;80.69
78431;BME280;67727;50.236;22.452;2024-02-28T00:37:38;99796.63;;;7.60;80.89
78431;BME280;67727;50.236;22.452;2024-02-28T00:40:05;99797.00;;;7.58;80.62
78431;BME280;67727;50.236;22.452;2024-02-28T00:42:32;99793.04;;;7.55;81.30
78431;BME280;67727;50.236;22.452;2024-02-28T00:44:59;99796.87;;;7.52;80.89
78431;BME280;67727;50.236;22.452;2024-02-28T00:47:26;99801.56;;;7.49;81.33
78431;BME280;67727;50.236;22.452;2024-02-28T00:49:54;99795.60;;;7.46;80.94
78431;BME280;67727;50.236;22.452;2024-02-28T00:52:21;99801.29;;;7.43;81.00
78431;BME280;67727;50.236;22.452;2024-02-28T00:54:47;99797.71;;;7.40;81.00
78431;BME280;67727;50.236;22.452;2024-02-28T00:57:14;99797.82;;;7.37;81.32
78431;BME280;67727;50.236;22.452;2024-02-28T00:59:41;99803.14;;;7.33;81.56
78431;BME280;67727;50.236;22.452;2024-02-28T01:02:09;99798.36;;;7.30;81.21
78431;BME280;67727;50.236;22.452;2024-02-28T01:04:35;99794.58;;;7.27;81.46
78431;BME280;67727;50.236;22.452;2024-02-28T01:07:03;99794.57;;;7.26;81.37
78431;BME280;67727;50.236;22.452;2024-02-28T01:09:29;99795.96;;;7.24;81.67
78431;BME280;67727;50.236;22.452;2024-02-28T01:11:56;99795.70;;;7.23;81.42
78431;BME280;67727;50.236;22.452;2024-02-28T01:14:24;99791.55;;;7.23;81.46
78431;BME280;67727;50.236;22.452;2024-02-28T01:16:51;99789.27;;;7.23;81.76
78431;BME280;67727;50.236;22.452;2024-02-28T01:19:18;99790.10;;;7.23;81.35
78431;BME280;67727;50.236;22.452;2024-02-28T01:21:45;99787.85;;;7.24;81.78
78431;BME280;67727;50.236;22.452;2024-02-28T01:24:11;99785.55;;;7.24;81.44
78431;BME280;67727;50.236;22.452;2024-02-28T01:26:39;99789.44;;;7.24;81.20
78431;BME280;67727;50.236;22.452;2024-02-28T01:29:06;99789.48;;;7.24;81.54
78431;BME280;67727;50.236;22.452;2024-02-28T01:31:33;99791.38;;;7.23;81.24
78431;BME280;67727;50.236;22.452;2024-02-28T01:34:00;99790.88;;;7.21;81.27
78431;BME280;67727;50.236;22.452;2024-02-28T01:36:27;99790.16;;;7.19;81.25
78431;BME280;67727;50.236;22.452;2024-02-28T01:38:54;99789.95;;;7.18;81.10
78431;BME280;67727;50.236;22.452;2024-02-28T01:41:21;99789.67;;;7.15;81.03
78431;BME280;67727;50.236;22.452;2024-02-28T01:43:47;99785.26;;;7.14;80.92
78431;BME280;67727;50.236;22.452;2024-02-28T01:46:26;99786.83;;;7.12;81.50
78431;BME280;67727;50.236;22.452;2024-02-28T01:48:54;99786.99;;;7.10;81.32
78431;BME280;67727;50.236;22.452;2024-02-28T01:51:23;99791.50;;;7.09;81.32
78431;BME280;67727;50.236;22.452;2024-02-28T01:53:52;99791.30;;;7.08;80.84
78431;BME280;67727;50.236;22.452;2024-02-28T01:56:20;99789.66;;;7.06;80.97
78431;BME280;67727;50.236;22.452;2024-02-28T01:58:49;99795.84;;;7.04;81.03
78431;BME280;67727;50.236;22.452;2024-02-28T02:01:17;99791.84;;;7.02;80.99
78431;BME280;67727;50.236;22.452;2024-02-28T02:03:44;99795.80;;;7.00;80.92
78431;BME280;67727;50.236;22.452;2024-02-28T02:06:11;99796.69;;;6.98;80.87
78431;BME280;67727;50.236;22.452;2024-02-28T02:08:39;99795.34;;;6.95;80.68
78431;BME280;67727;50.236;22.452;2024-02-28T02:11:07;99795.88;;;6.92;80.73
78431;BME280;67727;50.236;22.452;2024-02-28T02:13:34;99797.21;;;6.87;80.80
78431;BME280;67727;50.236;22.452;2024-02-28T02:16:02;99789.80;;;6.82;81.15
78431;BME280;67727;50.236;22.452;2024-02-28T02:18:29;99794.52;;;6.76;80.81
78431;BME280;67727;50.236;22.452;2024-02-28T02:21:02;99797.99;;;6.72;81.11
78431;BME280;67727;50.236;22.452;2024-02-28T02:23:31;99794.68;;;6.66;80.97
78431;BME280;67727;50.236;22.452;2024-02-28T02:25:59;99801.14;;;6.63;81.02
78431;BME280;67727;50.236;22.452;2024-02-28T02:28:25;99798.52;;;6.61;81.39
78431;BME280;67727;50.236;22.452;2024-02-28T02:30:52;99793.17;;;6.58;81.16
78431;BME280;67727;50.236;22.452;2024-02-28T02:33:19;99794.19;;;6.57;81.20
78431;BME280;67727;50.236;22.452;2024-02-28T02:35:46;99793.52;;;6.55;81.09
78431;BME280;67727;50.236;22.452;2024-02-28T02:38:13;99798.73;;;6.53;81.14
78431;BME280;67727;50.236;22.452;2024-02-28T02:40:40;99797.73;;;6.51;81.39
78431;BME280;67727;50.236;22.452;2024-02-28T02:43:07;99798.42;;;6.49;81.39
78431;BME280;67727;50.236;22.452;2024-02-28T02:45:34;99797.65;;;6.46;81.31
78431;BME280;67727;50.236;22.452;2024-02-28T02:48:00;99798.42;;;6.44;81.27
78431;BME280;67727;50.236;22.452;2024-02-28T02:50:27;99801.84;;;6.41;81.23
78431;BME280;67727;50.236;22.452;2024-02-28T02:52:54;99804.34;;;6.39;81.22
78431;BME280;67727;50.236;22.452;2024-02-28T02:55:21;99802.81;;;6.37;81.23
78431;BME280;67727;50.236;22.452;2024-02-28T02:57:48;99803.92;;;6.34;81.35
78431;BME280;67727;50.236;22.452;2024-02-28T03:00:15;99805.60;;;6.31;81.39
78431;BME280;67727;50.236;22.452;2024-02-28T03:02:42;99804.21;;;6.30;81.39
78431;BME280;67727;50.236;22.452;2024-02-28T03:05:09;99804.10;;;6.26;81.39
78431;BME280;67727;50.236;22.452;2024-02-28T03:07:36;99806.69;;;6.25;81.16
78431;BME280;67727;50.236;22.452;2024-02-28T03:10:04;99807.23;;;6.23;81.56
78431;BME280;67727;50.236;22.452;2024-02-28T03:12:31;99810.45;;;6.21;81.27
78431;BME280;67727;50.236;22.452;2024-02-28T03:14:58;99807.27;;;6.19;81.28
78431;BME280;67727;50.236;22.452;2024-02-28T03:17:25;99808.36;;;6.17;81.27
78431;BME280;67727;50.236;22.452;2024-02-28T03:19:52;99806.46;;;6.13;81.28
78431;BME280;67727;50.236;22.452;2024-02-28T03:22:19;99805.63;;;6.09;81.70
78431;BME280;67727;50.236;22.452;2024-02-28T03:24:46;99804.35;;;6.04;81.71
78431;BME280;67727;50.236;22.452;2024-02-28T03:27:13;99810.17;;;5.99;81.56
78431;BME280;67727;50.236;22.452;2024-02-28T03:29:40;99807.29;;;5.95;81.72
78431;BME280;67727;50.236;22.452;2024-02-28T03:32:08;99807.73;;;5.92;81.77
78431;BME280;67727;50.236;22.452;2024-02-28T03:34:34;99805.82;;;5.90;82.02
78431;BME280;67727;50.236;22.452;2024-02-28T03:37:01;99805.80;;;5.86;82.09
78431;BME280;67727;50.236;22.452;2024-02-28T03:39:28;99804.79;;;5.82;82.27
78431;BME280;67727;50.236;22.452;2024-02-28T03:41:55;99809.61;;;5.79;82.27
78431;BME280;67727;50.236;22.452;2024-02-28T03:44:23;99805.02;;;5.78;82.58
78431;BME280;67727;50.236;22.452;2024-02-28T03:46:52;99805.70;;;5.76;82.44
78431;BME280;67727;50.236;22.452;2024-02-28T03:49:19;99806.29;;;5.73;82.59
78431;BME280;67727;50.236;22.452;2024-02-28T03:51:46;99810.13;;;5.71;82.66
78431;BME280;67727;50.236;22.452;2024-02-28T03:54:13;99805.88;;;5.70;82.54
78431;BME280;67727;50.236;22.452;2024-02-28T03:56:40;99804.08;;;5.69;82.64
78431;BME280;67727;50.236;22.452;2024-02-28T03:59:07;99802.44;;;5.67;82.82
78431;BME280;67727;50.236;22.452;2024-02-28T04:01:34;99807.01;;;5.67;82.82
78431;BME280;67727;50.236;22.452;2024-02-28T04:04:01;99801.56;;;5.68;82.79
78431;BME280;67727;50.236;22.452;2024-02-28T04:06:29;99805.81;;;5.67;82.82
78431;BME280;67727;50.236;22.452;2024-02-28T04:08:56;99804.59;;;5.67;82.78
78431;BME280;67727;50.236;22.452;2024-02-28T04:11:23;99808.57;;;5.68;82.69
78431;BME280;67727;50.236;22.452;2024-02-28T04:13:50;99800.70;;;5.67;82.72
78431;BME280;67727;50.236;22.452;2024-02-28T04:16:17;99803.48;;;5.67;82.81
78431;BME280;67727;50.236;22.452;2024-02-28T04:18:44;99806.66;;;5.67;82.73
78431;BME280;67727;50.236;22.452;2024-02-28T04:21:11;99803.90;;;5.67;82.62
78431;BME280;67727;50.236;22.452;2024-02-28T04:23:38;99806.98;;;5.68;82.68
78431;BME280;67727;50.236;22.452;2024-02-28T04:26:05;99808.20;;;5.68;82.55
78431;BME280;67727;50.236;22.452;2024-02-28T04:28:32;99808.50;;;5.66;82.56
78431;BME280;67727;50.236;22.452;2024-02-28T04:30:59;99804.85;;;5.66;82.35
78431;BME280;67727;50.236;22.452;2024-02-28T04:33:26;99807.46;;;5.65;82.49
78431;BME280;67727;50.236;22.452;2024-02-28T04:35:53;99814.71;;;5.64;82.65
78431;BME280;67727;50.236;22.452;2024-02-28T04:38:20;99817.05;;;5.63;82.68
78431;BME280;67727;50.236;22.452;2024-02-28T04:40:47;99813.84;;;5.62;82.40
78431;BME280;67727;50.236;22.452;2024-02-28T04:43:14;99818.27;;;5.61;82.67
78431;BME280;67727;50.236;22.452;2024-02-28T04:45:41;99819.20;;;5.61;82.50
78431;BME280;67727;50.236;22.452;2024-02-28T04:48:07;99818.16;;;5.60;82.66
78431;BME280;67727;50.236;22.452;2024-02-28T04:50:34;99814.80;;;5.59;82.50
78431;BME280;67727;50.236;22.452;2024-02-28T04:53:02;99812.52;;;5.57;82.49
78431;BME280;67727;50.236;22.452;2024-02-28T04:55:29;99813.27;;;5.57;82.45
78431;BME280;67727;50.236;22.452;2024-02-28T04:57:56;99821.14;;;5.55;82.48
78431;BME280;67727;50.236;22.452;2024-02-28T05:00:23;99827.99;;;5.55;82.66
78431;BME280;67727;50.236;22.452;2024-02-28T05:02:50;99830.44;;;5.55;82.67
78431;BME280;67727;50.236;22.452;2024-02-28T05:05:17;99833.89;;;5.56;82.68
78431;BME280;67727;50.236;22.452;2024-02-28T05:07:43;99834.20;;;5.56;82.80
78431;BME280;67727;50.236;22.452;2024-02-28T05:10:10;99833.71;;;5.57;82.91
78431;BME280;67727;50.236;22.452;2024-02-28T05:12:38;99830.94;;;5.59;82.93
78431;BME280;67727;50.236;22.452;2024-02-28T05:15:05;99826.29;;;5.62;82.88
78431;BME280;67727;50.236;22.452;2024-02-28T05:17:33;99832.25;;;5.65;82.78
78431;BME280;67727;50.236;22.452;2024-02-28T05:20:00;99832.20;;;5.68;82.77
78431;BME280;67727;50.236;22.452;2024-02-28T05:22:27;99837.20;;;5.71;82.65
78431;BME280;67727;50.236;22.452;2024-02-28T05:24:54;99840.66;;;5.73;82.48
78431;BME280;67727;50.236;22.452;2024-02-28T05:27:21;99846.41;;;5.76;82.42
78431;BME280;67727;50.236;22.452;2024-02-28T05:29:48;99848.14;;;5.80;82.62
78431;BME280;67727;50.236;22.452;2024-02-28T05:32:15;99845.83;;;5.82;82.41
78431;BME280;67727;50.236;22.452;2024-02-28T05:34:45;99850.71;;;5.84;82.43
78431;BME280;67727;50.236;22.452;2024-02-28T05:37:12;99853.55;;;5.88;82.49
78431;BME280;67727;50.236;22.452;2024-02-28T05:39:39;99847.41;;;5.89;82.41
78431;BME280;67727;50.236;22.452;2024-02-28T05:42:06;99855.46;;;5.90;82.33
78431;BME280;67727;50.236;22.452;2024-02-28T05:44:34;99857.45;;;5.89;82.42
78431;BME280;67727;50.236;22.452;2024-02-28T05:47:01;99862.34;;;5.89;82.37
78431;BME280;67727;50.236;22.452;2024-02-28T05:49:28;99862.73;;;5.91;82.31
78431;BME280;67727;50.236;22.452;2024-02-28T05:51:55;99869.30;;;5.92;82.30
78431;BME280;67727;50.236;22.452;2024-02-28T05:54:22;99861.91;;;5.94;82.33
78431;BME280;67727;50.236;22.452;2024-02-28T05:56:49;99869.88;;;5.97;82.26
78431;BME280;67727;50.236;22.452;2024-02-28T05:59:16;99878.57;;;6.00;82.23
78431;BME280;67727;50.236;22.452;2024-02-28T06:01:43;99881.75;;;6.02;82.29
78431;BME280;67727;50.236;22.452;2024-02-28T06:04:10;99882.27;;;6.05;82.28
78431;BME280;67727;50.236;22.452;2024-02-28T06:06:37;99877.52;;;6.09;82.17
78431;BME280;67727;50.236;22.452;2024-02-28T06:09:04;99876.36;;;6.14;82.34
78431;BME280;67727;50.236;22.452;2024-02-28T06:11:32;99875.06;;;6.18;82.09
78431;BME280;67727;50.236;22.452;2024-02-28T06:14:00;99876.45;;;6.22;82.04
78431;BME280;67727;50.236;22.452;2024-02-28T06:16:27;99875.59;;;6.26;82.06
78431;BME280;67727;50.236;22.452;2024-02-28T06:18:54;99871.55;;;6.28;81.92
78431;BME280;67727;50.236;22.452;2024-02-28T06:21:24;99877.48;;;6.32;81.97
78431;BME280;67727;50.236;22.452;2024-02-28T06:23:51;99880.48;;;6.37;81.95
78431;BME280;67727;50.236;22.452;2024-02-28T06:26:18;99885.53;;;6.43;81.88
78431;BME280;67727;50.236;22.452;2024-02-28T06:28:45;99888.86;;;6.49;81.99
78431;BME280;67727;50.236;22.452;2024-02-28T06:31:16;99890.66;;;6.54;81.73
78431;BME280;67727;50.236;22.452;2024-02-28T06:33:44;99891.16;;;6.58;81.49
78431;BME280;67727;50.236;22.452;2024-02-28T06:36:11;99892.46;;;6.61;81.44
78431;BME280;67727;50.236;22.452;2024-02-28T06:38:38;99887.86;;;6.61;80.79
78431;BME280;67727;50.236;22.452;2024-02-28T06:41:05;99889.11;;;6.61;81.07
78431;BME280;67727;50.236;22.452;2024-02-28T06:43:35;99888.50;;;6.62;81.11
78431;BME280;67727;50.236;22.452;2024-02-28T06:46:02;99890.97;;;6.63;80.90
78431;BME280;67727;50.236;22.452;2024-02-28T06:48:29;99894.20;;;6.66;81.07
78431;BME280;67727;50.236;22.452;2024-02-28T06:50:56;99897.77;;;6.69;80.86
78431;BME280;67727;50.236;22.452;2024-02-28T06:53:25;99899.30;;;6.72;80.72
78431;BME280;67727;50.236;22.452;2024-02-28T06:55:53;99893.70;;;6.73;80.67
78431;BME280;67727;50.236;22.452;2024-02-28T06:58:20;99893.77;;;6.76;80.56
78431;BME280;67727;50.236;22.452;2024-02-28T07:00:48;99894.05;;;6.79;80.39
78431;BME280;67727;50.236;22.452;2024-02-28T07:03:15;99888.58;;;6.83;80.99
78431;BME280;67727;50.236;22.452;2024-02-28T07:05:42;99883.95;;;6.91;80.86
78431;BME280;67727;50.236;22.452;2024-02-28T07:08:09;99888.17;;;7.00;80.93
78431;BME280;67727;50.236;22.452;2024-02-28T07:10:38;99893.42;;;7.09;80.59
78431;BME280;67727;50.236;22.452;2024-02-28T07:13:09;99897.02;;;7.17;80.40
78431;BME280;67727;50.236;22.452;2024-02-28T07:15:37;99892.77;;;7.23;80.12
78431;BME280;67727;50.236;22.452;2024-02-28T07:18:06;99891.61;;;7.28;80.31
78431;BME280;67727;50.236;22.452;2024-02-28T07:20:33;99892.81;;;7.31;79.93
78431;BME280;67727;50.236;22.452;2024-02-28T07:23:00;99896.61;;;7.34;79.74
78431;BME280;67727;50.236;22.452;2024-02-28T07:25:27;99895.52;;;7.38;79.71
78431;BME280;67727;50.236;22.452;2024-02-28T07:27:57;99900.23;;;7.40;79.41
78431;BME280;67727;50.236;22.452;2024-02-28T07:30:23;99902.84;;;7.41;79.58
78431;BME280;67727;50.236;22.452;2024-02-28T07:32:50;99898.68;;;7.40;79.36
78431;BME280;67727;50.236;22.452;2024-02-28T07:35:17;99900.33;;;7.40;79.19
78431;BME280;67727;50.236;22.452;2024-02-28T07:37:45;99904.89;;;7.39;79.62
78431;BME280;67727;50.236;22.452;2024-02-28T07:40:14;99910.23;;;7.42;79.67
78431;BME280;67727;50.236;22.452;2024-02-28T07:42:41;99909.81;;;7.46;79.42
78431;BME280;67727;50.236;22.452;2024-02-28T07:45:07;99908.52;;;7.51;79.81
78431;BME280;67727;50.236;22.452;2024-02-28T07:47:35;99900.16;;;7.56;79.70
78431;BME280;67727;50.236;22.452;2024-02-28T07:50:02;99896.46;;;7.62;79.05
78431;BME280;67727;50.236;22.452;2024-02-28T07:52:29;99896.09;;;7.66;79.20
78431;BME280;67727;50.236;22.452;2024-02-28T07:54:55;99890.24;;;7.68;79.04
78431;BME280;67727;50.236;22.452;2024-02-28T07:57:22;99892.92;;;7.71;79.32
78431;BME280;67727;50.236;22.452;2024-02-28T07:59:49;99890.83;;;7.74;79.50
78431;BME280;67727;50.236;22.452;2024-02-28T08:02:16;99888.80;;;7.79;79.34
78431;BME280;67727;50.236;22.452;2024-02-28T08:04:46;99889.62;;;7.83;79.20
78431;BME280;67727;50.236;22.452;2024-02-28T08:07:13;99896.06;;;7.85;79.35
78431;BME280;67727;50.236;22.452;2024-02-28T08:09:40;99892.63;;;7.86;79.24
78431;BME280;67727;50.236;22.452;2024-02-28T08:12:07;99892.73;;;7.88;79.70
78431;BME280;67727;50.236;22.452;2024-02-28T08:14:34;99888.45;;;7.91;78.63
78431;BME280;67727;50.236;22.452;2024-02-28T08:17:01;99886.50;;;7.91;78.27
78431;BME280;67727;50.236;22.452;2024-02-28T08:19:28;99887.13;;;7.94;78.74
78431;BME280;67727;50.236;22.452;2024-02-28T08:21:55;99886.31;;;8.00;79.07
78431;BME280;67727;50.236;22.452;2024-02-28T08:24:22;99879.52;;;8.06;78.90
78431;BME280;67727;50.236;22.452;2024-02-28T08:26:48;99884.06;;;8.10;78.89
78431;BME280;67727;50.236;22.452;2024-02-28T08:29:15;99886.64;;;8.16;78.65
78431;BME280;67727;50.236;22.452;2024-02-28T08:31:43;99884.70;;;8.19;78.91
78431;BME280;67727;50.236;22.452;2024-02-28T08:34:10;99884.45;;;8.25;78.74
78431;BME280;67727;50.236;22.452;2024-02-28T08:36:37;99887.70;;;8.29;78.31
78431;BME280;67727;50.236;22.452;2024-02-28T08:39:04;99887.33;;;8.35;77.81
78431;BME280;67727;50.236;22.452;2024-02-28T08:41:33;99887.95;;;8.39;77.44
78431;BME280;67727;50.236;22.452;2024-02-28T08:44:00;99886.08;;;8.42;77.42
78431;BME280;67727;50.236;22.452;2024-02-28T08:46:28;99889.14;;;8.47;77.98
78431;BME280;67727;50.236;22.452;2024-02-28T08:48:55;99890.36;;;8.54;77.76
78431;BME280;67727;50.236;22.452;2024-02-28T08:51:22;99888.87;;;8.61;78.08
78431;BME280;67727;50.236;22.452;2024-02-28T08:53:49;99894.35;;;8.69;78.16
78431;BME280;67727;50.236;22.452;2024-02-28T08:56:16;99897.36;;;8.79;77.33
78431;BME280;67727;50.236;22.452;2024-02-28T08:58:43;99896.44;;;8.87;76.91
78431;BME280;67727;50.236;22.452;2024-02-28T09:01:15;99893.55;;;8.92;76.70
78431;BME280;67727;50.236;22.452;2024-02-28T09:03:42;99893.77;;;8.96;76.61
78431;BME280;67727;50.236;22.452;2024-02-28T09:06:09;99895.35;;;9.02;76.80
78431;BME280;67727;50.236;22.452;2024-02-28T09:08:36;99895.64;;;9.09;77.03
78431;BME280;67727;50.236;22.452;2024-02-28T09:11:03;99900.32;;;9.18;76.60
78431;BME280;67727;50.236;22.452;2024-02-28T09:13:31;99900.26;;;9.27;77.02
78431;BME280;67727;50.236;22.452;2024-02-28T09:15:58;99894.72;;;9.39;76.93
78431;BME280;67727;50.236;22.452;2024-02-28T09:18:25;99895.76;;;9.49;76.09
78431;BME280;67727;50.236;22.452;2024-02-28T09:20:52;99894.17;;;9.58;75.98
78431;BME280;67727;50.236;22.452;2024-02-28T09:23:19;99889.64;;;9.65;75.82
78431;BME280;67727;50.236;22.452;2024-02-28T09:25:47;99888.45;;;9.71;75.46
78431;BME280;67727;50.236;22.452;2024-02-28T09:28:14;99890.23;;;9.79;75.40
78431;BME280;67727;50.236;22.452;2024-02-28T09:30:42;99895.05;;;9.88;75.84
78431;BME280;67727;50.236;22.452;2024-02-28T09:33:10;99892.00;;;9.98;75.63
78431;BME280;67727;50.236;22.452;2024-02-28T09:35:37;99893.23;;;10.08;75.46
78431;BME280;67727;50.236;22.452;2024-02-28T09:38:04;99896.87;;;10.17;75.24
78431;BME280;67727;50.236;22.452;2024-02-28T09:40:31;99887.88;;;10.25;74.40
78431;BME280;67727;50.236;22.452;2024-02-28T09:43:01;99889.37;;;10.32;74.44
78431;BME280;67727;50.236;22.452;2024-02-28T09:45:30;99891.70;;;10.41;74.80
78431;BME280;67727;50.236;22.452;2024-02-28T09:47:59;99893.30;;;10.51;74.21
78431;BME280;67727;50.236;22.452;2024-02-28T09:50:27;99896.58;;;10.59;73.95
78431;BME280;67727;50.236;22.452;2024-02-28T09:52:54;99892.70;;;10.67;74.06
78431;BME280;67727;50.236;22.452;2024-02-28T09:55:21;99894.17;;;10.78;74.43
78431;BME280;67727;50.236;22.452;2024-02-28T09:57:48;99898.77;;;10.87;73.38
78431;BME280;67727;50.236;22.452;2024-02-28T10:00:19;99894.91;;;10.91;72.68
78431;BME280;67727;50.236;22.452;2024-02-28T10:02:49;99895.16;;;10.94;72.73
78431;BME280;67727;50.236;22.452;2024-02-28T10:05:18;99893.87;;;10.99;73.53
78431;BME280;67727;50.236;22.452;2024-02-28T10:07:45;99893.23;;;11.07;73.51
78431;BME280;67727;50.236;22.452;2024-02-28T10:10:13;99893.55;;;11.14;73.28
78431;BME280;67727;50.236;22.452;2024-02-28T10:12:41;99897.98;;;11.22;73.32
78431;BME280;67727;50.236;22.452;2024-02-28T10:15:10;99903.80;;;11.30;73.09
78431;BME280;67727;50.236;22.452;2024-02-28T10:17:37;99901.56;;;11.37;73.30
78431;BME280;67727;50.236;22.452;2024-02-28T10:20:05;99904.91;;;11.46;73.03
78431;BME280;67727;50.236;22.452;2024-02-28T10:22:36;99901.77;;;11.52;72.23
78431;BME280;67727;50.236;22.452;2024-02-28T10:25:03;99900.06;;;11.60;72.44
78431;BME280;67727;50.236;22.452;2024-02-28T10:27:34;99902.66;;;11.67;71.77
78431;BME280;67727;50.236;22.452;2024-02-28T10:30:02;99898.23;;;11.73;72.39
78431;BME280;67727;50.236;22.452;2024-02-28T10:32:32;99897.39;;;11.82;72.54
78431;BME280;67727;50.236;22.452;2024-02-28T10:35:03;99894.01;;;11.93;72.46
78431;BME280;67727;50.236;22.452;2024-02-28T10:37:32;99893.33;;;12.02;72.17
78431;BME280;67727;50.236;22.452;2024-02-28T10:40:00;99893.75;;;12.10;72.25
78431;BME280;67727;50.236;22.452;2024-02-28T10:42:29;99889.45;;;12.20;72.24
78431;BME280;67727;50.236;22.452;2024-02-28T10:44:57;99885.83;;;12.30;71.86
78431;BME280;67727;50.236;22.452;2024-02-28T10:47:27;99893.71;;;12.41;72.13
78431;BME280;67727;50.236;22.452;2024-02-28T10:49:55;99895.48;;;12.55;72.22
78431;BME280;67727;50.236;22.452;2024-02-28T10:52:22;99896.92;;;12.67;72.01
78431;BME280;67727;50.236;22.452;2024-02-28T10:54:54;99896.87;;;12.78;71.41
78431;BME280;67727;50.236;22.452;2024-02-28T10:57:24;99893.14;;;12.89;71.16
78431;BME280;67727;50.236;22.452;2024-02-28T10:59:52;99895.85;;;12.94;70.42
78431;BME280;67727;50.236;22.452;2024-02-28T11:02:22;99895.51;;;13.00;70.78
78431;BME280;67727;50.236;22.452;2024-02-28T11:04:53;99894.42;;;13.07;70.97
78431;BME280;67727;50.236;22.452;2024-02-28T11:07:21;99896.74;;;13.14;70.61
78431;BME280;67727;50.236;22.452;2024-02-28T11:09:54;99894.15;;;13.22;70.43
78431;BME280;67727;50.236;22.452;2024-02-28T11:12:25;99890.83;;;13.28;69.64
78431;BME280;67727;50.236;22.452;2024-02-28T11:17:28;99892.77;;;13.38;69.17
78431;BME280;67727;50.236;22.452;2024-02-28T11:19:56;99893.56;;;13.43;68.64
78431;BME280;67727;50.236;22.452;2024-02-28T11:22:22;99891.31;;;13.48;68.86
78431;BME280;67727;50.236;22.452;2024-02-28T11:24:53;99890.02;;;13.56;68.69
78431;BME280;67727;50.236;22.452;2024-02-28T11:27:21;99882.84;;;13.64;68.68
78431;BME280;67727;50.236;22.452;2024-02-28T11:29:48;99879.97;;;13.72;68.95
78431;BME280;67727;50.236;22.452;2024-02-28T11:32:16;99877.58;;;13.81;68.91
78431;BME280;67727;50.236;22.452;2024-02-28T11:34:43;99880.02;;;13.89;68.68
78431;BME280;67727;50.236;22.452;2024-02-28T11:37:11;99877.11;;;13.95;68.74
78431;BME280;67727;50.236;22.452;2024-02-28T11:39:38;99876.91;;;14.01;68.74
78431;BME280;67727;50.236;22.452;2024-02-28T11:42:15;99873.19;;;14.09;69.21
78431;BME280;67727;50.236;22.452;2024-02-28T11:44:43;99871.05;;;14.20;69.28
78431;BME280;67727;50.236;22.452;2024-02-28T11:47:10;99866.28;;;14.31;69.09
78431;BME280;67727;50.236;22.452;2024-02-28T11:49:38;99868.04;;;14.42;69.42
78431;BME280;67727;50.236;22.452;2024-02-28T11:52:05;99866.80;;;14.55;69.47
78431;BME280;67727;50.236;22.452;2024-02-28T11:54:32;99866.27;;;14.66;68.90
78431;BME280;67727;50.236;22.452;2024-02-28T11:56:59;99862.02;;;14.77;67.93
78431;BME280;67727;50.236;22.452;2024-02-28T11:59:25;99864.18;;;14.87;67.49
78431;BME280;67727;50.236;22.452;2024-02-28T12:01:53;99862.95;;;14.97;66.09
78431;BME280;67727;50.236;22.452;2024-02-28T12:04:24;99866.67;;;15.06;64.77
78431;BME280;67727;50.236;22.452;2024-02-28T12:06:52;99865.65;;;15.13;63.45
78431;BME280;67727;50.236;22.452;2024-02-28T12:09:19;99863.69;;;15.17;63.26
78431;BME280;67727;50.236;22.452;2024-02-28T12:11:46;99860.63;;;15.21;63.33
78431;BME280;67727;50.236;22.452;2024-02-28T12:14:13;99865.60;;;15.25;62.53
78431;BME280;67727;50.236;22.452;2024-02-28T12:16:40;99867.45;;;15.28;62.38
78431;BME280;67727;50.236;22.452;2024-02-28T12:19:11;99870.66;;;15.31;62.76
78431;BME280;67727;50.236;22.452;2024-02-28T12:21:38;99869.07;;;15.34;62.46
78431;BME280;67727;50.236;22.452;2024-02-28T12:24:10;99870.22;;;15.34;61.68
78431;BME280;67727;50.236;22.452;2024-02-28T12:26:38;99863.88;;;15.35;61.55
78431;BME280;67727;50.236;22.452;2024-02-28T12:29:06;99866.23;;;15.36;61.38
78431;BME280;67727;50.236;22.452;2024-02-28T12:31:33;99869.48;;;15.36;61.47
78431;BME280;67727;50.236;22.452;2024-02-28T12:34:00;99870.88;;;15.36;61.76
78431;BME280;67727;50.236;22.452;2024-02-28T12:36:27;99871.82;;;15.36;61.63
78431;BME280;67727;50.236;22.452;2024-02-28T12:38:54;99869.19;;;15.35;61.80
78431;BME280;67727;50.236;22.452;2024-02-28T12:41:21;99873.67;;;15.37;61.52
78431;BME280;67727;50.236;22.452;2024-02-28T12:43:48;99875.48;;;15.37;61.21
78431;BME280;67727;50.236;22.452;2024-02-28T12:46:15;99874.23;;;15.35;61.33
78431;BME280;67727;50.236;22.452;2024-02-28T12:48:42;99874.95;;;15.34;61.29
78431;BME280;67727;50.236;22.452;2024-02-28T12:51:11;99876.17;;;15.32;61.49
78431;BME280;67727;50.236;22.452;2024-02-28T12:53:40;99877.01;;;15.33;61.14
78431;BME280;67727;50.236;22.452;2024-02-28T12:56:07;99885.59;;;15.33;61.15
78431;BME280;67727;50.236;22.452;2024-02-28T12:58:34;99883.11;;;15.31;61.01
78431;BME280;67727;50.236;22.452;2024-02-28T13:01:01;99888.00;;;15.31;61.43